createdAt,value
2019-01-28T00:01:23.500Z,14.23
2019-01-28T00:03:53.387Z,14.37
2019-01-28T00:06:23.093Z,14.63
2019-01-28T00:08:52.848Z,15.50
2019-01-28T00:11:22.502Z,15.23
2019-01-28T00:13:52.331Z,15.63
2019-01-28T00:16:22.408Z,15.03
2019-01-28T00:18:52.158Z,15.50
2019-01-28T00:21:22.063Z,15.20
2019-01-28T00:23:51.824Z,14.93
2019-01-28T00:26:21.511Z,15.53
2019-01-28T00:28:51.635Z,16.17
2019-01-28T00:31:22.668Z,15.93
2019-01-28T00:33:52.573Z,16.63
2019-01-28T00:36:23.310Z,15.47
2019-01-28T00:38:53.181Z,15.53
2019-01-28T00:41:23.157Z,15.27
2019-01-28T00:43:52.969Z,15.33
2019-01-28T00:46:22.882Z,14.63
2019-01-28T00:48:52.914Z,15.60
2019-01-28T00:51:22.724Z,14.03
2019-01-28T00:53:52.578Z,14.03
2019-01-28T00:56:22.554Z,15.53
2019-01-28T00:58:52.490Z,15.10
2019-01-28T01:01:22.515Z,14.30
2019-01-28T01:03:52.303Z,14.00
2019-01-28T01:06:22.242Z,14.20
2019-01-28T01:08:52.022Z,14.57
2019-01-28T01:11:21.743Z,15.10
2019-01-28T01:13:51.633Z,15.00
2019-01-28T01:16:21.549Z,15.13
2019-01-28T01:18:51.178Z,13.47
2019-01-28T01:21:21.053Z,14.60
2019-01-28T01:23:50.926Z,15.33
2019-01-28T01:26:20.738Z,14.00
2019-01-28T01:28:50.600Z,14.57
2019-01-28T01:31:20.251Z,15.47
2019-01-28T01:33:50.072Z,15.37
2019-01-28T01:36:20.021Z,16.47
2019-01-28T01:38:49.896Z,14.90
2019-01-28T01:41:19.932Z,15.30
2019-01-28T01:43:49.861Z,15.67
2019-01-28T01:46:19.671Z,16.90
2019-01-28T01:48:50.064Z,17.30
2019-01-28T01:51:19.942Z,17.33
2019-01-28T01:53:49.596Z,17.43
2019-01-28T01:56:19.419Z,17.03
2019-01-28T01:58:49.162Z,16.77
2019-01-28T02:01:18.838Z,17.30
2019-01-28T02:03:48.598Z,17.17
2019-01-28T02:06:18.405Z,17.30
2019-01-28T02:08:48.448Z,17.90
2019-01-28T02:11:18.093Z,18.03
2019-01-28T02:13:48.059Z,17.20
2019-01-28T02:16:17.715Z,17.57
2019-01-28T02:18:47.642Z,17.43
2019-01-28T02:21:18.957Z,18.20
2019-01-28T02:23:48.833Z,17.50
2019-01-28T02:26:18.748Z,16.50
2019-01-28T02:28:48.672Z,17.07
2019-01-28T02:31:18.449Z,17.27
2019-01-28T02:33:48.258Z,17.47
2019-01-28T02:36:18.013Z,18.30
2019-01-28T02:38:47.885Z,18.13
2019-01-28T02:41:17.505Z,17.67
2019-01-28T02:43:47.368Z,18.17
2019-01-28T02:46:17.128Z,16.80
2019-01-28T02:48:46.936Z,18.73
2019-01-28T02:51:16.838Z,16.67
2019-01-28T02:53:46.470Z,17.33
2019-01-28T02:56:16.277Z,16.10
2019-01-28T02:58:45.938Z,17.50
2019-01-28T03:01:15.709Z,18.63
2019-01-28T03:03:45.728Z,17.30
2019-01-28T03:06:15.594Z,17.57
2019-01-28T03:08:45.454Z,17.90
2019-01-28T03:11:15.264Z,17.73
2019-01-28T03:13:45.116Z,18.57
2019-01-28T03:16:15.092Z,16.43
2019-01-28T03:18:44.817Z,17.33
2019-01-28T03:21:14.527Z,18.93
2019-01-28T03:23:44.621Z,16.77
2019-01-28T03:26:14.360Z,16.53
2019-01-28T03:28:44.179Z,17.77
2019-01-28T03:31:14.301Z,17.30
2019-01-28T03:33:44.017Z,16.97
2019-01-28T03:36:14.037Z,16.97
2019-01-28T03:38:44.984Z,17.33
2019-01-28T03:41:14.884Z,18.27
2019-01-28T03:43:44.749Z,18.10
2019-01-28T03:46:14.697Z,18.93
2019-01-28T03:48:44.552Z,19.10
2019-01-28T03:51:14.580Z,17.70
2019-01-28T03:53:44.406Z,18.33
2019-01-28T03:56:14.278Z,18.00
2019-01-28T03:58:44.139Z,17.47
2019-01-28T04:01:14.033Z,16.83
2019-01-28T04:03:43.875Z,17.77
2019-01-28T04:06:13.863Z,17.60
2019-01-28T04:08:43.786Z,16.27
2019-01-28T04:11:13.647Z,16.93
2019-01-28T04:13:43.489Z,15.23
2019-01-28T04:16:13.318Z,17.00
2019-01-28T04:18:43.087Z,18.10
2019-01-28T04:21:12.960Z,18.93
2019-01-28T04:23:42.652Z,18.03
2019-01-28T04:26:12.641Z,18.03
2019-01-28T04:28:42.290Z,18.17
2019-01-28T04:31:12.105Z,18.13
2019-01-28T04:33:42.052Z,18.63
2019-01-28T04:36:11.748Z,19.37
2019-01-28T04:38:41.545Z,18.17
2019-01-28T04:41:12.497Z,19.20
2019-01-28T04:43:42.188Z,17.70
2019-01-28T04:46:11.945Z,17.37
2019-01-28T04:48:41.718Z,18.10
2019-01-28T04:51:13.012Z,17.47
2019-01-28T04:53:42.791Z,17.33
2019-01-28T04:56:12.788Z,16.63
2019-01-28T04:58:42.550Z,17.83
2019-01-28T05:01:12.486Z,16.63
2019-01-28T05:03:42.144Z,17.03
2019-01-28T05:06:13.507Z,20.57
2019-01-28T05:08:43.623Z,16.87
2019-01-28T05:11:13.441Z,17.13
2019-01-28T05:13:43.238Z,17.33
2019-01-28T05:16:13.002Z,17.40
2019-01-28T05:18:42.765Z,17.37
2019-01-28T05:21:12.605Z,15.07
2019-01-28T05:23:42.337Z,16.27
2019-01-28T05:26:12.270Z,18.07
2019-01-28T05:28:42.015Z,16.87
2019-01-28T05:31:11.728Z,17.63
2019-01-28T05:33:41.505Z,17.33
2019-01-28T05:36:11.383Z,18.40
2019-01-28T05:38:41.274Z,25.33
2019-01-28T05:41:11.048Z,29.43
2019-01-28T05:43:40.695Z,26.83
2019-01-28T05:46:10.408Z,20.97
2019-01-28T05:48:40.282Z,20.37
2019-01-28T05:51:10.168Z,19.33
2019-01-28T05:53:39.860Z,21.43
2019-01-28T05:56:09.849Z,20.20
2019-01-28T05:58:39.584Z,18.07
2019-01-28T06:01:10.882Z,18.73
2019-01-28T06:03:40.664Z,17.57
2019-01-28T06:06:10.356Z,18.73
2019-01-28T06:08:40.360Z,18.70
2019-01-28T06:11:10.195Z,18.10
2019-01-28T06:13:40.179Z,18.10
2019-01-28T06:16:10.151Z,18.50
2019-01-28T06:18:39.948Z,18.83
2019-01-28T06:21:10.029Z,19.70
2019-01-28T06:23:39.813Z,22.10
2019-01-28T06:26:09.614Z,21.57
2019-01-28T06:28:39.351Z,21.93
2019-01-28T06:31:09.111Z,20.70
2019-01-28T06:33:39.038Z,21.60
2019-01-28T06:36:08.897Z,22.70
2019-01-28T06:38:38.655Z,22.30
2019-01-28T06:41:08.477Z,22.37
2019-01-28T06:43:38.239Z,22.40
2019-01-28T06:46:08.103Z,22.43
2019-01-28T06:48:38.847Z,21.60
2019-01-28T06:51:10.401Z,19.83
2019-01-28T06:53:40.432Z,21.67
2019-01-28T06:56:10.232Z,18.30
2019-01-28T06:58:40.104Z,16.40
2019-01-28T07:01:10.085Z,15.53
2019-01-28T07:03:39.940Z,15.30
2019-01-28T07:06:09.691Z,16.20
2019-01-28T07:08:39.396Z,17.67
2019-01-28T07:11:09.295Z,15.37
2019-01-28T07:13:38.820Z,18.13
2019-01-28T07:16:08.760Z,16.93
2019-01-28T07:18:38.794Z,18.67
2019-01-28T07:21:08.799Z,17.47
2019-01-28T07:23:38.596Z,16.60
2019-01-28T07:26:08.459Z,16.63
2019-01-28T07:28:38.234Z,17.43
2019-01-28T07:31:08.567Z,16.80
2019-01-28T07:33:38.423Z,15.83
2019-01-28T07:36:08.181Z,15.40
2019-01-28T07:38:37.988Z,12.30
2019-01-28T07:41:07.897Z,11.97
2019-01-28T07:43:37.741Z,13.77
2019-01-28T07:46:07.651Z,12.80
2019-01-28T07:48:37.527Z,14.87
2019-01-28T07:51:08.401Z,15.47
2019-01-28T07:53:38.116Z,14.07
2019-01-28T07:56:09.083Z,14.17
2019-01-28T07:58:38.763Z,14.87
2019-01-28T08:01:08.572Z,15.47
2019-01-28T08:03:38.396Z,14.70
2019-01-28T08:06:08.755Z,17.30
2019-01-28T08:08:38.652Z,16.23
2019-01-28T08:11:08.592Z,17.23
2019-01-28T08:13:38.492Z,16.33
2019-01-28T08:16:08.298Z,18.03
2019-01-28T08:18:38.336Z,19.07
2019-01-28T08:21:08.220Z,18.03
2019-01-28T08:23:38.031Z,17.93
2019-01-28T08:26:07.984Z,16.20
2019-01-28T08:28:37.757Z,17.10
2019-01-28T08:31:07.519Z,15.83
2019-01-28T08:33:37.288Z,15.60
2019-01-28T08:36:07.101Z,15.57
2019-01-28T08:38:36.857Z,16.50
2019-01-28T08:41:06.523Z,17.03
2019-01-28T08:43:36.125Z,16.67
2019-01-28T08:46:05.818Z,14.50
2019-01-28T08:48:35.556Z,19.47
2019-01-28T08:51:05.264Z,15.73
2019-01-28T08:53:35.218Z,16.23
2019-01-28T08:56:05.661Z,14.47
2019-01-28T08:58:35.407Z,14.53
2019-01-28T09:01:05.372Z,13.57
2019-01-28T09:03:35.285Z,15.40
2019-01-28T09:06:05.224Z,15.63
2019-01-28T09:08:35.142Z,17.43
2019-01-28T09:11:05.340Z,17.63
2019-01-28T09:13:35.153Z,16.97
2019-01-28T09:16:05.295Z,16.30
2019-01-28T09:18:35.113Z,14.53
2019-01-28T09:21:05.001Z,16.87
2019-01-28T09:23:34.983Z,14.83
2019-01-28T09:26:06.595Z,12.50
2019-01-28T09:28:36.370Z,12.93
2019-01-28T09:31:07.539Z,12.37
2019-01-28T09:33:37.453Z,12.53
2019-01-28T09:36:07.689Z,11.87
2019-01-28T09:38:37.518Z,11.23
2019-01-28T09:41:07.517Z,12.13
2019-01-28T09:43:37.634Z,12.70
2019-01-28T09:46:07.465Z,13.37
2019-01-28T09:48:37.366Z,12.30
2019-01-28T09:51:07.386Z,14.23
2019-01-28T09:53:37.227Z,13.53
2019-01-28T09:56:07.146Z,15.10
2019-01-28T09:58:37.240Z,14.60
2019-01-28T10:01:07.105Z,15.67
2019-01-28T10:03:36.964Z,21.40
2019-01-28T10:06:07.002Z,15.27
2019-01-28T10:08:36.828Z,19.80
2019-01-28T10:11:06.750Z,16.43
2019-01-28T10:13:36.255Z,12.63
2019-01-28T10:16:05.903Z,14.10
2019-01-28T10:18:41.787Z,17.03
2019-01-28T10:21:06.830Z,14.97
2019-01-28T10:23:36.637Z,14.93
2019-01-28T10:26:06.482Z,11.03
2019-01-28T10:28:36.322Z,23.33
2019-01-28T10:31:06.821Z,14.83
2019-01-28T10:33:36.686Z,16.30
2019-01-28T10:36:06.678Z,14.17
2019-01-28T10:38:36.564Z,15.90
2019-01-28T10:41:06.684Z,12.90
2019-01-28T10:43:36.556Z,13.40
2019-01-28T10:46:06.474Z,13.20
2019-01-28T10:48:36.599Z,12.53
2019-01-28T10:51:06.699Z,12.83
2019-01-28T10:53:36.453Z,13.07
2019-01-28T10:56:06.534Z,19.17
2019-01-28T10:58:36.252Z,14.37
2019-01-28T11:01:07.395Z,14.57
2019-01-28T11:03:37.201Z,13.13
2019-01-28T11:06:07.121Z,12.17
2019-01-28T11:08:37.106Z,10.83
2019-01-28T11:11:07.300Z,10.70
2019-01-28T11:13:36.981Z,10.57
2019-01-28T11:16:07.191Z,10.73
2019-01-28T11:18:37.108Z,11.53
2019-01-28T11:21:07.023Z,14.03
2019-01-28T11:23:38.139Z,14.37
2019-01-28T11:26:08.137Z,14.80
2019-01-28T11:28:38.019Z,13.17
2019-01-28T11:31:11.603Z,12.53
2019-01-28T11:33:41.344Z,10.43
2019-01-28T11:36:12.375Z,9.17
2019-01-28T11:38:42.300Z,9.43
2019-01-28T11:41:12.108Z,9.10
2019-01-28T11:43:41.883Z,10.10
2019-01-28T11:46:12.027Z,9.93
2019-01-28T11:48:41.836Z,8.97
2019-01-28T11:51:11.725Z,9.97
2019-01-28T11:53:41.491Z,10.83
2019-01-28T11:56:11.508Z,9.63
2019-01-28T11:58:41.472Z,9.50
2019-01-28T12:01:33.650Z,9.07
2019-01-28T12:04:04.847Z,8.93
2019-01-28T12:06:34.917Z,9.40
2019-01-28T12:09:07.581Z,9.03
2019-01-28T12:11:37.264Z,8.97
2019-01-28T12:14:07.468Z,8.83
2019-01-28T12:16:37.250Z,8.33
2019-01-28T12:19:13.954Z,8.77
2019-01-28T12:21:38.615Z,8.90
2019-01-28T12:24:08.348Z,8.43
2019-01-28T12:26:38.614Z,9.63
2019-01-28T12:29:08.359Z,8.80
2019-01-28T12:31:38.026Z,8.90
2019-01-28T12:34:08.087Z,9.20
2019-01-28T12:36:37.903Z,9.30
2019-01-28T12:39:09.607Z,8.67
2019-01-28T12:41:39.605Z,7.70
2019-01-28T12:44:09.623Z,8.43
2019-01-28T12:46:39.601Z,8.63
2019-01-28T12:49:09.665Z,9.40
2019-01-28T12:51:39.585Z,9.77
2019-01-28T12:54:09.531Z,10.27
2019-01-28T12:56:39.466Z,9.50
2019-01-28T12:59:10.572Z,10.00
2019-01-28T13:01:40.348Z,9.47
2019-01-28T13:04:10.171Z,8.93
2019-01-28T13:06:39.919Z,9.47
2019-01-28T13:09:10.561Z,10.33
2019-01-28T13:11:40.551Z,9.67
2019-01-28T13:14:10.619Z,10.20
2019-01-28T13:16:40.370Z,10.87
2019-01-28T13:19:10.205Z,8.97
2019-01-28T13:21:41.483Z,9.83
2019-01-28T13:24:11.232Z,9.30
2019-01-28T13:26:40.858Z,10.27
2019-01-28T13:29:10.726Z,10.97
2019-01-28T13:31:40.710Z,11.37
2019-01-28T13:34:10.490Z,10.23
2019-01-28T13:36:40.798Z,10.17
2019-01-28T13:39:10.685Z,10.87
2019-01-28T13:41:40.451Z,9.10
2019-01-28T13:44:10.099Z,9.10
2019-01-28T13:46:39.786Z,11.67
2019-01-28T13:49:09.713Z,10.00
2019-01-28T13:51:39.677Z,10.80
2019-01-28T13:54:09.855Z,10.20
2019-01-28T13:56:39.945Z,10.80
2019-01-28T13:59:16.184Z,10.00
2019-01-28T14:01:41.730Z,10.47
2019-01-28T14:04:11.441Z,10.97
2019-01-28T14:06:41.196Z,12.03
2019-01-28T14:09:11.092Z,9.93
2019-01-28T14:11:40.909Z,10.67
2019-01-28T14:14:10.963Z,10.83
2019-01-28T14:16:40.718Z,9.93
2019-01-28T14:19:10.324Z,11.27
2019-01-28T14:21:40.215Z,9.10
2019-01-28T14:24:10.197Z,11.10
2019-01-28T14:26:40.106Z,11.53
2019-01-28T14:29:09.942Z,10.13
2019-01-28T14:31:39.805Z,10.93
2019-01-28T14:34:09.452Z,12.23
2019-01-28T14:36:39.399Z,11.30
2019-01-28T14:39:13.773Z,11.93
2019-01-28T14:41:44.819Z,14.73
2019-01-28T14:44:14.643Z,11.13
2019-01-28T14:46:44.436Z,11.70
2019-01-28T14:49:14.416Z,12.93
2019-01-28T14:51:44.181Z,11.90
2019-01-28T14:54:14.065Z,19.80
2019-01-28T14:56:43.808Z,19.17
2019-01-28T14:59:13.620Z,10.23
2019-01-28T15:01:43.484Z,11.07
2019-01-28T15:04:13.137Z,11.00
2019-01-28T15:06:42.969Z,10.80
2019-01-28T15:09:14.593Z,13.03
2019-01-28T15:11:44.454Z,14.97
2019-01-28T15:14:14.237Z,12.10
2019-01-28T15:16:44.208Z,10.53
2019-01-28T15:19:14.053Z,10.40
2019-01-28T15:21:43.779Z,10.90
2019-01-28T15:24:14.775Z,13.00
2019-01-28T15:26:44.576Z,11.37
2019-01-28T15:29:14.443Z,11.77
2019-01-28T15:31:45.531Z,11.33
2019-01-28T15:34:15.332Z,11.00
2019-01-28T15:36:46.456Z,13.70
2019-01-28T15:39:16.369Z,15.57
2019-01-28T15:41:46.185Z,13.17
2019-01-28T15:44:16.083Z,10.50
2019-01-28T15:46:45.808Z,11.37
2019-01-28T15:49:15.709Z,11.00
2019-01-28T15:51:45.545Z,11.33
2019-01-28T15:54:15.453Z,11.50
2019-01-28T15:56:45.518Z,11.80
2019-01-28T15:59:15.287Z,11.47
2019-01-28T16:01:45.105Z,12.83
2019-01-28T16:04:14.873Z,13.20
2019-01-28T16:06:44.631Z,11.87
2019-01-28T16:09:14.449Z,12.80
2019-01-28T16:11:44.308Z,11.73
2019-01-28T16:14:14.193Z,11.03
2019-01-28T16:16:44.060Z,11.90
2019-01-28T16:19:14.136Z,12.30
2019-01-28T16:21:44.230Z,10.90
2019-01-28T16:24:14.094Z,11.93
2019-01-28T16:26:43.781Z,12.83
2019-01-28T16:29:13.595Z,14.37
2019-01-28T16:31:43.447Z,14.30
2019-01-28T16:34:13.331Z,12.73
2019-01-28T16:36:43.225Z,13.63
2019-01-28T16:39:13.286Z,13.80
2019-01-28T16:41:43.104Z,14.30
2019-01-28T16:44:13.577Z,12.93
2019-01-28T16:46:43.210Z,11.63
2019-01-28T16:49:14.126Z,11.23
2019-01-28T16:51:44.009Z,11.37
2019-01-28T16:54:13.867Z,11.17
2019-01-28T16:56:43.790Z,11.73
2019-01-28T16:59:13.748Z,11.37
2019-01-28T17:01:43.616Z,11.67
2019-01-28T17:04:13.230Z,9.83
2019-01-28T17:06:43.103Z,12.83
2019-01-28T17:09:13.075Z,9.77
2019-01-28T17:11:43.095Z,10.07
2019-01-28T17:14:13.046Z,9.40
2019-01-28T17:16:42.837Z,9.33
2019-01-28T17:19:12.729Z,8.20
2019-01-28T17:21:42.583Z,8.27
2019-01-28T17:24:13.594Z,8.57
2019-01-28T17:26:43.565Z,8.50
2019-01-28T17:29:13.311Z,8.00
2019-01-28T17:31:43.146Z,7.57
2019-01-28T17:34:12.987Z,7.03
2019-01-28T17:36:42.659Z,7.63
2019-01-28T17:39:12.472Z,8.80
2019-01-28T17:41:42.237Z,7.73
2019-01-28T17:44:12.116Z,8.40
2019-01-28T17:46:41.810Z,8.77
2019-01-28T17:49:11.577Z,8.07
2019-01-28T17:51:41.330Z,7.90
2019-01-28T17:54:12.295Z,9.67
2019-01-28T17:56:42.140Z,10.23
2019-01-28T17:59:12.234Z,9.23
2019-01-28T18:01:42.024Z,10.47
2019-01-28T18:04:11.791Z,9.17
2019-01-28T18:06:41.560Z,10.50
2019-01-28T18:09:11.778Z,11.57
2019-01-28T18:11:41.638Z,11.30
2019-01-28T18:14:11.425Z,11.90
2019-01-28T18:16:41.122Z,12.13
2019-01-28T18:19:12.606Z,10.70
2019-01-28T18:21:42.300Z,12.23
2019-01-28T18:24:12.169Z,12.63
2019-01-28T18:26:42.058Z,10.60
2019-01-28T18:29:11.829Z,10.87
2019-01-28T18:31:41.632Z,12.13
2019-01-28T18:34:11.260Z,10.47
2019-01-28T18:36:41.136Z,9.63
2019-01-28T18:39:13.216Z,10.97
2019-01-28T18:41:42.992Z,10.47
2019-01-28T18:44:12.762Z,10.83
2019-01-28T18:46:42.637Z,9.50
2019-01-28T18:49:12.720Z,11.50
2019-01-28T18:51:42.518Z,12.17
2019-01-28T18:54:12.486Z,11.57
2019-01-28T18:56:42.241Z,9.90
2019-01-28T18:59:11.863Z,9.20
2019-01-28T19:01:41.712Z,8.27
2019-01-28T19:04:11.476Z,8.40
2019-01-28T19:07:03.288Z,8.33
2019-01-28T19:10:00.914Z,6.87
2019-01-28T19:12:47.187Z,7.37
2019-01-28T19:15:38.990Z,7.70
2019-01-28T19:18:34.909Z,6.93
2019-01-28T19:21:18.182Z,7.73
2019-01-28T19:23:48.148Z,6.63
2019-01-28T19:26:17.912Z,6.87
2019-01-28T19:28:47.802Z,6.43
2019-01-28T19:31:18.708Z,7.23
2019-01-28T19:33:49.847Z,7.00
2019-01-28T19:36:19.815Z,7.63
2019-01-28T19:38:49.670Z,7.73
2019-01-28T19:41:19.556Z,8.60
2019-01-28T19:43:49.349Z,7.53
2019-01-28T19:46:20.526Z,7.43
2019-01-28T19:48:50.439Z,7.53
2019-01-28T19:51:20.345Z,7.43
2019-01-28T19:53:50.193Z,6.33
2019-01-28T19:56:19.979Z,7.40
2019-01-28T19:58:49.948Z,7.80
2019-01-28T20:01:19.872Z,7.40
2019-01-28T20:03:49.843Z,8.00
2019-01-28T20:06:19.567Z,7.10
2019-01-28T20:08:49.465Z,7.83
2019-01-28T20:11:19.380Z,7.33
2019-01-28T20:13:49.355Z,7.90
2019-01-28T20:16:19.192Z,8.20
2019-01-28T20:18:48.909Z,8.07
2019-01-28T20:21:23.627Z,9.00
2019-01-28T20:23:50.390Z,15.03
2019-01-28T20:26:20.289Z,12.20
2019-01-28T20:28:49.959Z,15.53
2019-01-28T20:31:20.191Z,13.90
2019-01-28T20:33:50.055Z,10.93
2019-01-28T20:36:19.815Z,11.33
2019-01-28T20:38:49.571Z,10.80
2019-01-28T20:41:19.510Z,9.90
2019-01-28T20:43:49.560Z,9.30
2019-01-28T20:46:19.545Z,9.93
2019-01-28T20:48:49.286Z,8.77
2019-01-28T20:51:19.080Z,8.90
2019-01-28T20:53:48.926Z,8.70
2019-01-28T20:56:18.715Z,9.30
2019-01-28T20:58:48.525Z,9.70
2019-01-28T21:01:18.380Z,10.63
2019-01-28T21:03:48.161Z,8.77
2019-01-28T21:06:18.394Z,8.63
2019-01-28T21:08:48.461Z,8.33
2019-01-28T21:11:18.283Z,9.17
2019-01-28T21:13:48.238Z,8.23
2019-01-28T21:16:19.723Z,8.87
2019-01-28T21:18:49.465Z,9.17
2019-01-28T21:21:19.197Z,8.57
2019-01-28T21:23:50.281Z,8.67
2019-01-28T21:26:20.061Z,8.83
2019-01-28T21:28:49.862Z,7.80
2019-01-28T21:31:19.803Z,9.17
2019-01-28T21:33:49.583Z,8.13
2019-01-28T21:36:28.871Z,8.63
2019-01-28T21:38:59.760Z,8.77
2019-01-28T21:41:29.875Z,8.17
2019-01-28T21:44:00.933Z,7.60
2019-01-28T21:46:30.736Z,7.87
2019-01-28T21:49:00.451Z,9.13
2019-01-28T21:51:30.332Z,8.07
2019-01-28T21:54:00.140Z,9.13
2019-01-28T21:56:29.794Z,8.73
2019-01-28T21:58:59.619Z,8.70
2019-01-28T22:01:30.771Z,8.10
2019-01-28T22:04:00.501Z,9.37
2019-01-28T22:06:30.373Z,8.50
2019-01-28T22:09:00.085Z,7.40
2019-01-28T22:11:29.733Z,7.43
2019-01-28T22:13:59.612Z,7.20
2019-01-28T22:16:29.763Z,7.73
2019-01-28T22:18:59.597Z,8.07
2019-01-28T22:21:29.367Z,7.97
2019-01-28T22:23:59.196Z,7.97
2019-01-28T22:26:29.359Z,8.10
2019-01-28T22:28:59.119Z,7.57
2019-01-28T22:31:28.921Z,8.57
2019-01-28T22:33:59.814Z,8.60
2019-01-28T22:36:30.115Z,8.73
2019-01-28T22:39:00.575Z,8.30
2019-01-28T22:41:31.611Z,8.03
2019-01-28T22:44:01.395Z,9.17
2019-01-28T22:46:31.188Z,8.17
2019-01-28T22:49:01.072Z,15.43
2019-01-28T22:51:30.992Z,8.60
2019-01-28T22:54:00.870Z,9.13
2019-01-28T22:56:30.935Z,8.03
2019-01-28T22:59:00.692Z,8.67
2019-01-28T23:01:41.276Z,8.40
2019-01-28T23:04:11.162Z,8.90
2019-01-28T23:06:41.071Z,8.17
2019-01-28T23:09:11.332Z,9.20
2019-01-28T23:11:41.013Z,8.73
2019-01-28T23:14:11.005Z,8.70
2019-01-28T23:16:40.680Z,7.40
2019-01-28T23:19:10.620Z,8.20
2019-01-28T23:21:40.464Z,7.40
2019-01-28T23:24:10.405Z,7.70
2019-01-28T23:26:40.238Z,7.37
2019-01-28T23:29:10.136Z,7.57
2019-01-28T23:31:40.042Z,10.63
2019-01-28T23:34:10.123Z,13.37
2019-01-28T23:36:40.173Z,12.43
2019-01-28T23:39:10.324Z,10.90
2019-01-28T23:41:40.062Z,11.17
2019-01-28T23:44:09.813Z,11.37
2019-01-28T23:46:39.668Z,11.33
2019-01-28T23:49:09.614Z,12.57
2019-01-28T23:51:39.268Z,12.20
2019-01-28T23:54:09.216Z,12.23
2019-01-28T23:56:38.940Z,10.93
2019-01-28T23:59:08.616Z,11.37
